Latest Weather Observations for Sellicks Hill

IDS60801

Issued at 9:05 am CST Wednesday 1 October 2014 (issued every 30 minutes, with the page automatically refreshed every 10 minutes)

About weather observations | Map of weather stations | Latest weather observations for SA | Other Formats
Station Details ID: 023886 Name: MOUNT TERRIBLE RADAR Lat: -35.33 Lon: 138.50 Height: 385.7 m
Data from the previous 72 hours. | See also: Recent months for locations in South Australia
Date/Time
CST
Temp
°C
App
Temp
°C
Dew
Point
Rel
Hum
%
Delta-T
°C
Wind Press
QNH
hPa
Press
MSL
hPa
Rain
since 9 am
mm
Dir
 
Spd
km/h
Gust
km/h
Spd
kts
Gust
kts
01/09:00am - - - - - S 7 13 4 7 - - -
01/08:30am - - - - - S 7 13 4 7 - - -
01/08:00am - - - - - S 7 11 4 6 - - -
01/07:30am - - - - - SSW 6 11 3 6 - - -
01/07:00am - - - - - S 7 11 4 6 - - -
01/06:30am - - - - - S 9 17 5 9 - - -
01/06:00am - - - - - SSW 7 11 4 6 - - -
01/05:30am - - - - - SSW 6 11 3 6 - - -
01/05:00am - - - - - SSW 7 9 4 5 - - -
01/04:30am - - - - - SSW 9 15 5 8 - - -
01/04:00am - - - - - SSW 11 15 6 8 - - -
01/03:30am - - - - - SSW 11 17 6 9 - - -
01/03:00am - - - - - SSW 9 15 5 8 - - -
01/02:30am - - - - - SW 11 22 6 12 - - -
01/02:00am - - - - - SSW 11 17 6 9 - - -
01/01:30am - - - - - SW 11 19 6 10 - - -
01/01:00am - - - - - SSW 13 19 7 10 - - -
01/12:30am - - - - - SW 13 22 7 12 - - -
01/12:00am - - - - - SW 13 19 7 10 - - -
 
Date/Time
CST
Temp
°C
App
Temp
°C
Dew
Point
Rel
Hum
%
Delta-T
°C
Wind Press
QNH
hPa
Press
MSL
hPa
Rain
since 9 am
mm
Dir
 
Spd
km/h
Gust
km/h
Spd
kts
Gust
kts
30/11:30pm - - - - - SSW 13 19 7 10 - - -
30/11:00pm - - - - - SSW 13 20 7 11 - - -
30/10:30pm - - - - - SW 9 19 5 10 - - -
30/10:00pm - - - - - SSW 9 13 5 7 - - -
30/09:30pm - - - - - SW 15 24 8 13 - - -
30/09:00pm - - - - - SW 13 28 7 15 - - -
30/08:30pm - - - - - WSW 11 30 6 16 - - -
30/08:00pm - - - - - WSW 13 26 7 14 - - -
30/07:30pm - - - - - SW 15 30 8 16 - - -
30/07:00pm - - - - - WSW 11 24 6 13 - - -
30/06:30pm - - - - - W 9 22 5 12 - - -
30/06:00pm - - - - - W 13 30 7 16 - - -
30/05:30pm - - - - - W 17 32 9 17 - - -
30/05:00pm - - - - - W 17 33 9 18 - - -
30/04:30pm - - - - - WNW 15 32 8 17 - - -
30/04:00pm - - - - - WNW 15 33 8 18 - - -
30/03:30pm - - - - - WNW 17 35 9 19 - - -
30/03:00pm - - - - - WNW 17 26 9 14 - - -
30/02:30pm - - - - - W 13 28 7 15 - - -
30/02:00pm - - - - - WNW 19 39 10 21 - - -
30/01:30pm - - - - - WNW 22 43 12 23 - - -
30/01:00pm - - - - - WNW 22 44 12 24 - - -
30/12:30pm - - - - - WNW 24 43 13 23 - - -
30/12:00pm - - - - - WNW 22 37 12 20 - - -
30/11:30am - - - - - WNW 24 48 13 26 - - -
30/11:00am - - - - - NW 19 37 10 20 - - -
30/10:30am - - - - - NW 19 44 10 24 - - -
30/10:00am - - - - - NW 22 41 12 22 - - -
30/09:30am - - - - - NW 20 39 11 21 - - -
30/09:00am - - - - - NW 20 44 11 24 - - -
30/08:30am - - - - - NNW 20 37 11 20 - - -
30/08:00am - - - - - NW 19 39 10 21 - - -
30/07:30am - - - - - NNW 28 43 15 23 - - -
30/07:00am - - - - - NNW 22 39 12 21 - - -
30/06:30am - - - - - NNW 24 37 13 20 - - -
30/06:00am - - - - - NNW 22 32 12 17 - - -
30/05:30am - - - - - NNW 20 30 11 16 - - -
30/05:00am - - - - - NNW 19 26 10 14 - - -
30/04:30am - - - - - NNW 19 30 10 16 - - -
30/04:00am - - - - - NNW 17 26 9 14 - - -
30/03:30am - - - - - NNW 15 22 8 12 - - -
30/03:00am - - - - - NNW 15 20 8 11 - - -
30/02:30am - - - - - NNW 13 19 7 10 - - -
30/02:00am - - - - - NNW 11 17 6 9 - - -
30/01:30am - - - - - NNW 7 13 4 7 - - -
30/01:00am - - - - - NNW 7 13 4 7 - - -
30/12:30am - - - - - NNW 9 15 5 8 - - -
30/12:00am - - - - - NNW 7 13 4 7 - - -
 
Date/Time
CST
Temp
°C
App
Temp
°C
Dew
Point
Rel
Hum
%
Delta-T
°C
Wind Press
QNH
hPa
Press
MSL
hPa
Rain
since 9 am
mm
Dir
 
Spd
km/h
Gust
km/h
Spd
kts
Gust
kts
29/11:30pm - - - - - NW 7 11 4 6 - - -
29/11:00pm - - - - - NW 7 13 4 7 - - -
29/10:30pm - - - - - NW 7 17 4 9 - - -
29/10:00pm - - - - - NW 7 15 4 8 - - -
29/09:30pm - - - - - NW 7 15 4 8 - - -
29/09:00pm - - - - - NW 9 17 5 9 - - -
29/08:30pm - - - - - WNW 9 17 5 9 - - -
29/08:00pm - - - - - WNW 7 17 4 9 - - -
29/07:30pm - - - - - WNW 9 17 5 9 - - -
29/07:00pm - - - - - WNW 9 15 5 8 - - -
29/06:30pm - - - - - NW 13 20 7 11 - - -
29/06:00pm - - - - - NNW 13 19 7 10 - - -
29/05:30pm - - - - - NNW 19 26 10 14 - - -
29/05:00pm - - - - - NNW 17 30 9 16 - - -
29/04:30pm - - - - - NNW 15 28 8 15 - - -
29/04:00pm - - - - - NNW 19 33 10 18 - - -
29/03:30pm - - - - - NNW 20 39 11 21 - - -
29/03:00pm - - - - - NNW 20 33 11 18 - - -
29/02:30pm - - - - - NNW 22 33 12 18 - - -
29/02:00pm - - - - - NNW 22 39 12 21 - - -
29/01:30pm - - - - - NNW 19 30 10 16 - - -
29/01:00pm - - - - - NNW 20 33 11 18 - - -
29/12:30pm - - - - - NNW 20 33 11 18 - - -
29/12:00pm - - - - - NNW 20 37 11 20 - - -
29/11:30am - - - - - NNW 20 33 11 18 - - -
29/11:00am - - - - - NNW 19 30 10 16 - - -
29/10:30am - - - - - NNW 19 32 10 17 - - -
29/10:00am - - - - - NNW 19 32 10 17 - - -
29/09:30am - - - - - NNW 17 30 9 16 - - -
29/09:00am - - - - - NNW 11 20 6 11 - - -
29/08:30am - - - - - NNW 15 22 8 12 - - -
29/08:00am - - - - - NW 9 15 5 8 - - -
29/07:30am - - - - - WNW 9 17 5 9 - - -
29/07:00am - - - - - NW 9 19 5 10 - - -
29/06:30am - - - - - NW 11 20 6 11 - - -
29/06:00am - - - - - WNW 11 22 6 12 - - -
29/05:30am - - - - - WNW 13 24 7 13 - - -
29/05:00am - - - - - NW 13 24 7 13 - - -
29/04:30am - - - - - NW 11 24 6 13 - - -
29/04:00am - - - - - NW 13 26 7 14 - - -
29/03:30am - - - - - WNW 17 32 9 17 - - -
29/03:00am - - - - - NW 17 28 9 15 - - -
29/02:30am - - - - - NW 19 30 10 16 - - -
29/02:00am - - - - - NW 19 33 10 18 - - -
29/01:30am - - - - - WNW 20 35 11 19 - - -
29/01:00am - - - - - WNW 17 30 9 16 - - -
29/12:30am - - - - - NW 13 22 7 12 - - -
29/12:00am - - - - - NW 15 26 8 14 - - -
 
Date/Time
CST
Temp
°C
App
Temp
°C
Dew
Point
Rel
Hum
%
Delta-T
°C
Wind Press
QNH
hPa
Press
MSL
hPa
Rain
since 9 am
mm
Dir
 
Spd
km/h
Gust
km/h
Spd
kts
Gust
kts
28/11:30pm - - - - - NW 11 26 6 14 - - -
28/11:00pm - - - - - NW 15 26 8 14 - - -
28/10:30pm - - - - - NW 15 30 8 16 - - -
28/10:00pm - - - - - NW 15 24 8 13 - - -
28/09:30pm - - - - - NW 15 30 8 16 - - -
28/09:00pm - - - - - NW 20 32 11 17 - - -
28/08:30pm - - - - - NW 19 32 10 17 - - -
28/08:00pm - - - - - NW 19 33 10 18 - - -
28/07:30pm - - - - - WNW 17 30 9 16 - - -
28/07:00pm - - - - - W 15 30 8 16 - - -
28/06:30pm - - - - - WNW 15 30 8 16 - - -
28/06:00pm - - - - - WNW 13 30 7 16 - - -
28/05:30pm - - - - - W 17 37 9 20 - - -
28/05:00pm - - - - - W 15 30 8 16 - - -
28/04:30pm - - - - - W 13 30 7 16 - - -
28/04:00pm - - - - - W 17 32 9 17 - - -
28/03:30pm - - - - - W 13 26 7 14 - - -
28/03:00pm - - - - - WNW 13 30 7 16 - - -
28/02:30pm - - - - - W 15 32 8 17 - - -
28/02:00pm - - - - - WNW 20 33 11 18 - - -
28/01:30pm - - - - - NNW 28 44 15 24 - - -
28/01:05pm - - - - - NNW 28 50 15 27 - - -
28/01:00pm - - - - - NNW 28 46 15 25 - - -
28/12:56pm - - - - - NNW 28 48 15 26 - - -
28/12:30pm - - - - - NNW 26 41 14 22 - - -
28/12:00pm - - - - - NNW 30 46 16 25 - - -
28/11:31am - - - - - NNW 32 56 17 30 - - -
28/11:30am - - - - - NNW 30 44 16 24 - - -
28/11:02am - - - - - NNW 30 50 16 27 - - -
28/11:00am - - - - - NNW 30 48 16 26 - - -
28/10:30am - - - - - NNW 32 50 17 27 - - -
28/10:00am - - - - - NNW 28 50 15 27 - - -
28/09:30am - - - - - NNW 35 57 19 31 - - -

Other Formats:

Comma delimited format used in spreadsheet applications
http://www.bom.gov.au/fwo/IDS60801/IDS60801.95679.axf

JavaScript Object Notation format (JSON) in row-major order
http://www.bom.gov.au/fwo/IDS60801/IDS60801.95679.json